Decoded Metar for PASN (ST. PAUL ISLAND in AK, USA) (IATA:SNP) | Meteo·Mobile Aviation Weather
aviador You're here:

PASN Decoded Metar

ST. PAUL ISLAND in AK, USA
Report Time2019-03-23 20:53:00
UTC Time2019-03-23 21:37:01
Flight Rules mvfr MVFR
Wind220° at 13 kt
W.Decomp.*RWY 18: 11.3 kt HW 6.5 kt RCW
W.Rank220° ranks 32
Current wind is above 220° avg. (12.1)
Visibility9999 m
Phenomena:N/A
Clouds:Overcast 023 Hf
Expected CloudBase > 1,200 ft AGL from Temp-Dew spread
Ceiling2,300 ft
Temp01°C (ISA -14)
Dew Point-2°C (81% RH)
AAT-5.9°C
QNH999 hPa
Density Alt-1,037 ft
Elevation95 ft
Report Wrong Elevation
Raw Report
PASN 232053Z AUTO 22013KT 10SM OVC023 01/M02 A2950 RMK AO2
SNB20E33 SLP991 P0000 60000 T00111022 50000 TSNO $=

Extra information for PASN:More info

Metar Taf Metar & Taf Last 4 Metars F.Rules Stats Wind Profile Meteogram Temp Stats Airport Information Weather charts Add Link Nearby VenuesMetar ALERT Operation Metar Decoded Social comments

AIRNAV info for PASN